Time;durP1;ratioP1;P1;durP2;ratioP2;P2;SDS_P1;SDS_P2;PMS_P1;PMS_P2;Temp;Humidity;BMP_temperature;BMP_pressure;BME280_temperature;BME280_humidity;BME280_pressure;Samples;Min_cycle;Max_cycle;Signal;HPM_P1;HPM_P2
2022/03/05 00:02:25;;;;;;;3.42;2.28;;;;;;;;;;5092523;28;20027;-52
2022/03/05 00:04:52;;;;;;;3.65;2.30;;;;;;;;;;5092278;28;20381;-46
2022/03/05 00:07:19;;;;;;;2.53;2.00;;;;;;;;;;5092615;28;20036;-47
2022/03/05 00:09:45;;;;;;;2.45;1.90;;;;;;;;;;5092208;28;20099;-47
2022/03/05 00:12:11;;;;;;;2.38;1.73;;;;;;;;;;5073138;28;20033;-48
2022/03/05 00:14:37;;;;;;;3.22;2.25;;;;;;;;;;5071496;28;20071;-51
2022/03/05 00:17:04;;;;;;;2.90;2.03;;;;;;;;;;5072242;28;20402;-49
2022/03/05 00:19:30;;;;;;;3.22;1.88;;;;;;;;;;5091964;28;20038;-46
2022/03/05 00:21:59;;;;;;;3.00;1.90;;;;;;;;;;5075467;28;20031;-45
2022/03/05 00:24:25;;;;;;;3.70;1.67;;;;;;;;;;5071867;28;20028;-52
2022/03/05 00:26:51;;;;;;;2.08;1.45;;;;;;;;;;5072257;28;20150;-45
2022/03/05 00:29:17;;;;;;;2.35;1.95;;;;;;;;;;5086314;28;20100;-48
2022/03/05 00:31:43;;;;;;;2.92;1.75;;;;;;;;;;5076532;28;20473;-49
2022/03/05 00:34:09;;;;;;;3.60;2.05;;;;;;;;;;5072288;28;20026;-45
2022/03/05 00:36:36;;;;;;;2.15;1.77;;;;;;;;;;5071430;28;20020;-47
2022/03/05 00:39:02;;;;;;;2.03;1.67;;;;;;;;;;5072162;28;20347;-48
2022/03/05 00:41:27;;;;;;;2.67;2.05;;;;;;;;;;5083128;28;20089;-49
2022/03/05 00:43:53;;;;;;;2.25;1.65;;;;;;;;;;5085017;28;20020;-45
2022/03/05 00:46:19;;;;;;;5.03;2.40;;;;;;;;;;5071205;28;20036;-45
2022/03/05 00:48:45;;;;;;;2.85;1.98;;;;;;;;;;5080507;28;20103;-45
2022/03/05 00:51:11;;;;;;;2.72;1.65;;;;;;;;;;5082847;28;20089;-47
2022/03/05 00:53:38;;;;;;;3.55;1.88;;;;;;;;;;5073182;28;20029;-48
2022/03/05 00:56:04;;;;;;;3.22;2.15;;;;;;;;;;5092391;28;20110;-45
2022/03/05 00:58:30;;;;;;;2.92;1.77;;;;;;;;;;5091520;28;20031;-49
2022/03/05 01:00:56;;;;;;;2.30;1.60;;;;;;;;;;5088300;28;20021;-48
2022/03/05 01:03:22;;;;;;;3.33;2.10;;;;;;;;;;5072513;28;20025;-45
2022/03/05 01:05:50;;;;;;;4.35;2.42;;;;;;;;;;5071062;28;20444;-49
2022/03/05 01:08:16;;;;;;;2.42;1.75;;;;;;;;;;5072096;28;20032;-45
2022/03/05 01:10:42;;;;;;;3.22;2.25;;;;;;;;;;5072683;28;20024;-46
2022/03/05 01:13:08;;;;;;;2.47;1.63;;;;;;;;;;5091741;28;20024;-47
2022/03/05 01:15:34;;;;;;;2.22;1.60;;;;;;;;;;5091042;28;20047;-45
2022/03/05 01:18:00;;;;;;;3.63;2.38;;;;;;;;;;5091501;28;20081;-48
2022/03/05 01:20:26;;;;;;;3.15;1.95;;;;;;;;;;5091523;28;20427;-52
2022/03/05 01:22:52;;;;;;;2.35;1.90;;;;;;;;;;5087364;28;20017;-46
2022/03/05 01:25:18;;;;;;;2.28;1.83;;;;;;;;;;5071555;28;20078;-45
2022/03/05 01:27:45;;;;;;;2.95;1.80;;;;;;;;;;5070897;28;20825;-48
2022/03/05 01:30:11;;;;;;;2.40;1.77;;;;;;;;;;5071688;28;20031;-49
2022/03/05 01:32:37;;;;;;;3.22;2.40;;;;;;;;;;5074385;28;20029;-46
2022/03/05 01:35:04;;;;;;;2.17;1.75;;;;;;;;;;5090609;28;20032;-45
2022/03/05 01:37:30;;;;;;;2.63;1.85;;;;;;;;;;5090968;28;20024;-52
2022/03/05 01:39:56;;;;;;;3.20;2.28;;;;;;;;;;5091631;28;20059;-45
2022/03/05 01:42:23;;;;;;;1.75;1.38;;;;;;;;;;5076419;28;20037;-46
2022/03/05 01:44:49;;;;;;;2.72;1.60;;;;;;;;;;5073592;28;20027;-50
2022/03/05 01:47:15;;;;;;;2.55;2.05;;;;;;;;;;5071358;28;20036;-47
2022/03/05 01:49:41;;;;;;;2.97;1.50;;;;;;;;;;5071983;28;20017;-45
2022/03/05 01:52:07;;;;;;;2.55;1.70;;;;;;;;;;5081312;28;20039;-47
2022/03/05 01:54:33;;;;;;;3.47;1.60;;;;;;;;;;5090874;28;20035;-48
2022/03/05 01:57:00;;;;;;;2.22;1.60;;;;;;;;;;5093888;28;20097;-46
2022/03/05 01:59:27;;;;;;;2.67;1.73;;;;;;;;;;5087865;28;20078;-53
2022/03/05 02:01:53;;;;;;;2.35;1.90;;;;;;;;;;5086855;28;20122;-48
2022/03/05 02:04:19;;;;;;;2.30;1.80;;;;;;;;;;5095137;28;20028;-47
2022/03/05 02:06:45;;;;;;;2.05;1.63;;;;;;;;;;5094877;28;20028;-48
2022/03/05 02:09:11;;;;;;;2.63;1.85;;;;;;;;;;5095102;28;20099;-49
2022/03/05 02:11:37;;;;;;;2.10;1.70;;;;;;;;;;5093959;28;20111;-46
2022/03/05 02:14:03;;;;;;;2.45;1.77;;;;;;;;;;5095084;28;20055;-48
2022/03/05 02:16:29;;;;;;;2.28;1.38;;;;;;;;;;5094223;28;20040;-55
2022/03/05 02:18:56;;;;;;;2.33;1.77;;;;;;;;;;5094743;28;20032;-46
2022/03/05 02:21:23;;;;;;;2.17;1.70;;;;;;;;;;5090753;28;20076;-48
2022/03/05 02:23:49;;;;;;;2.88;1.63;;;;;;;;;;5073726;28;20055;-47
2022/03/05 02:26:15;;;;;;;3.28;2.17;;;;;;;;;;5074921;28;20033;-45
2022/03/05 02:28:41;;;;;;;2.40;1.80;;;;;;;;;;5073705;28;20036;-45
2022/03/05 02:31:07;;;;;;;2.80;1.70;;;;;;;;;;5075916;28;20374;-44
2022/03/05 02:33:33;;;;;;;2.40;1.58;;;;;;;;;;5094055;28;20027;-45
2022/03/05 02:36:00;;;;;;;2.40;1.60;;;;;;;;;;5093934;28;20495;-45
2022/03/05 02:38:26;;;;;;;2.30;1.48;;;;;;;;;;5094525;28;20389;-45
2022/03/05 02:40:52;;;;;;;2.55;1.70;;;;;;;;;;5094131;28;20107;-45
2022/03/05 02:43:19;;;;;;;3.08;2.28;;;;;;;;;;5058362;28;20422;-45
2022/03/05 02:45:45;;;;;;;3.35;2.20;;;;;;;;;;5092921;28;20036;-49
2022/03/05 02:48:12;;;;;;;2.33;1.83;;;;;;;;;;5094519;28;20087;-45
2022/03/05 02:50:39;;;;;;;3.35;2.03;;;;;;;;;;5091686;28;20020;-45
2022/03/05 02:53:05;;;;;;;2.28;1.67;;;;;;;;;;5076882;28;20032;-45
2022/03/05 02:55:31;;;;;;;2.00;1.55;;;;;;;;;;5073696;28;20032;-52
2022/03/05 02:57:57;;;;;;;2.50;1.70;;;;;;;;;;5074394;28;20052;-45
2022/03/05 03:00:23;;;;;;;2.95;2.10;;;;;;;;;;5074045;28;20035;-45
2022/03/05 03:02:50;;;;;;;3.53;1.90;;;;;;;;;;5085798;28;20058;-45
2022/03/05 03:05:16;;;;;;;2.17;1.80;;;;;;;;;;5094047;28;20416;-45
2022/03/05 03:07:43;;;;;;;1.75;1.50;;;;;;;;;;5074306;28;20074;-45
2022/03/05 03:10:10;;;;;;;2.03;1.50;;;;;;;;;;5092008;28;20031;-48
2022/03/05 03:12:36;;;;;;;2.55;1.60;;;;;;;;;;5080171;28;20078;-46
2022/03/05 03:15:03;;;;;;;5.20;2.47;;;;;;;;;;5076039;28;20370;-45
2022/03/05 03:17:29;;;;;;;1.92;1.58;;;;;;;;;;5093706;28;20028;-51
2022/03/05 03:19:55;;;;;;;2.63;1.75;;;;;;;;;;5093575;28;20024;-45
2022/03/05 03:22:21;;;;;;;2.72;1.52;;;;;;;;;;5091976;28;20028;-44
2022/03/05 03:24:47;;;;;;;2.13;1.58;;;;;;;;;;5093094;28;20032;-45
2022/03/05 03:27:13;;;;;;;3.03;1.77;;;;;;;;;;5094033;28;20035;-45
2022/03/05 03:29:39;;;;;;;3.03;2.00;;;;;;;;;;5092980;28;20153;-45
2022/03/05 03:32:05;;;;;;;3.20;1.83;;;;;;;;;;5086115;28;20343;-46
2022/03/05 03:34:32;;;;;;;2.05;1.50;;;;;;;;;;5072828;28;20024;-53
2022/03/05 03:36:57;;;;;;;2.78;1.67;;;;;;;;;;5074926;28;20032;-47
2022/03/05 03:39:23;;;;;;;1.90;1.70;;;;;;;;;;5073375;28;20458;-45
2022/03/05 03:41:49;;;;;;;1.98;1.65;;;;;;;;;;5076685;28;20153;-47
2022/03/05 03:44:15;;;;;;;2.33;1.80;;;;;;;;;;5083548;28;20074;-48
2022/03/05 03:46:41;;;;;;;3.35;2.45;;;;;;;;;;5072377;28;20076;-45
2022/03/05 03:49:08;;;;;;;1.70;1.40;;;;;;;;;;5073195;28;20035;-45
2022/03/05 03:51:34;;;;;;;1.80;1.40;;;;;;;;;;5071770;28;20466;-52
2022/03/05 03:54:00;;;;;;;3.08;1.98;;;;;;;;;;5073354;28;20086;-47
2022/03/05 03:56:26;;;;;;;2.75;2.10;;;;;;;;;;5072950;28;20078;-45
2022/03/05 03:58:52;;;;;;;2.55;1.63;;;;;;;;;;5072494;28;20029;-47
2022/03/05 04:01:18;;;;;;;2.15;1.70;;;;;;;;;;5073156;28;20024;-47
2022/03/05 04:03:44;;;;;;;2.00;1.45;;;;;;;;;;5072956;28;20389;-45
2022/03/05 04:06:10;;;;;;;1.70;1.30;;;;;;;;;;5073675;28;20024;-47
2022/03/05 04:08:42;;;;;;;2.95;1.65;;;;;;;;;;5092566;28;20103;-47
2022/03/05 04:11:08;;;;;;;;;;;;;;;;;;5091880;28;20048;-46
2022/03/05 04:13:35;;;;;;;2.55;1.50;;;;;;;;;;5092057;28;19904;-54
2022/03/05 04:16:01;;;;;;;2.33;1.60;;;;;;;;;;5092449;28;20048;-49
2022/03/05 04:18:27;;;;;;;2.08;1.67;;;;;;;;;;5076226;28;20032;-45
2022/03/05 04:20:53;;;;;;;2.28;1.73;;;;;;;;;;5091626;28;20027;-45
2022/03/05 04:23:19;;;;;;;2.63;1.70;;;;;;;;;;5057330;28;20028;-45
2022/03/05 04:25:45;;;;;;;2.42;1.60;;;;;;;;;;5053581;28;20466;-45
2022/03/05 04:28:11;;;;;;;2.72;1.75;;;;;;;;;;5072329;28;20093;-46
2022/03/05 04:30:37;;;;;;;3.92;1.67;;;;;;;;;;5079226;28;20024;-48
2022/03/05 04:33:03;;;;;;;2.35;1.67;;;;;;;;;;5072240;28;20025;-51
2022/03/05 04:35:29;;;;;;;1.92;1.35;;;;;;;;;;5072648;28;20458;-45
2022/03/05 04:37:55;;;;;;;2.00;1.80;;;;;;;;;;5071297;28;20469;-45
2022/03/05 04:40:21;;;;;;;2.72;2.00;;;;;;;;;;5072523;28;20031;-48
2022/03/05 04:42:47;;;;;;;1.70;1.30;;;;;;;;;;5088547;28;20024;-45
2022/03/05 04:45:14;;;;;;;2.22;1.58;;;;;;;;;;5092418;28;20032;-46
2022/03/05 04:47:40;;;;;;;2.53;1.70;;;;;;;;;;5081242;28;20037;-45
2022/03/05 04:50:07;;;;;;;3.20;1.70;;;;;;;;;;5072517;28;20033;-51
2022/03/05 04:52:34;;;;;;;3.25;2.10;;;;;;;;;;5084048;28;20023;-45
2022/03/05 04:55:00;;;;;;;3.17;1.70;;;;;;;;;;5092867;28;20064;-47
2022/03/05 04:57:26;;;;;;;2.25;1.92;;;;;;;;;;5079757;28;20370;-48
2022/03/05 04:59:52;;;;;;;3.80;1.60;;;;;;;;;;5071615;28;20660;-43
2022/03/05 05:02:18;;;;;;;1.70;1.42;;;;;;;;;;5083134;28;20031;-45
2022/03/05 05:04:44;;;;;;;2.90;1.45;;;;;;;;;;5091652;28;20081;-44
2022/03/05 05:07:10;;;;;;;4.07;1.60;;;;;;;;;;5081789;28;20100;-45
2022/03/05 05:09:37;;;;;;;2.15;1.80;;;;;;;;;;5071719;28;20039;-45
2022/03/05 05:12:05;;;;;;;2.70;1.70;;;;;;;;;;5080969;28;20055;-45
2022/03/05 05:14:31;;;;;;;3.25;1.80;;;;;;;;;;5092441;28;20035;-46
2022/03/05 05:16:57;;;;;;;2.20;1.55;;;;;;;;;;5091619;28;20313;-47
2022/03/05 05:19:29;;;;;;;2.92;1.83;;;;;;;;;;5074492;28;20442;-54
2022/03/05 05:22:03;;;;;;;3.38;1.98;;;;;;;;;;5072566;28;20020;-54
2022/03/05 05:24:30;;;;;;;2.40;1.88;;;;;;;;;;5072171;28;20116;-54
2022/03/05 05:26:57;;;;;;;1.98;1.48;;;;;;;;;;5071139;28;20504;-54
2022/03/05 05:29:23;;;;;;;3.40;2.13;;;;;;;;;;5071901;28;20040;-54
2022/03/05 05:31:49;;;;;;;2.47;1.80;;;;;;;;;;5078858;28;20082;-52
2022/03/05 05:34:16;;;;;;;2.53;1.52;;;;;;;;;;5096440;28;20457;-54
2022/03/05 05:36:42;;;;;;;2.55;1.75;;;;;;;;;;5095475;28;20043;-55
2022/03/05 05:39:08;;;;;;;2.33;1.85;;;;;;;;;;5096197;28;20032;-54
2022/03/05 05:41:35;;;;;;;2.20;1.60;;;;;;;;;;5092201;28;20028;-59
2022/03/05 05:44:03;;;;;;;2.42;1.83;;;;;;;;;;5065169;28;20020;-54
2022/03/05 05:46:29;;;;;;;3.03;2.10;;;;;;;;;;5096018;28;20036;-53
2022/03/05 05:48:55;;;;;;;2.42;1.63;;;;;;;;;;5095364;28;20054;-57
2022/03/05 05:51:22;;;;;;;3.70;1.83;;;;;;;;;;5095788;28;20024;-54
2022/03/05 05:53:48;;;;;;;3.42;2.00;;;;;;;;;;5095246;28;20028;-53
2022/03/05 05:56:14;;;;;;;2.88;1.90;;;;;;;;;;5076758;28;20025;-54
2022/03/05 05:58:40;;;;;;;2.38;1.85;;;;;;;;;;5074776;28;20488;-54
2022/03/05 06:01:06;;;;;;;3.40;2.17;;;;;;;;;;5092022;28;20485;-56
2022/03/05 06:03:32;;;;;;;2.90;2.10;;;;;;;;;;5095307;28;20377;-56
2022/03/05 06:05:58;;;;;;;2.33;1.65;;;;;;;;;;5094657;28;20024;-56
2022/03/05 06:08:25;;;;;;;3.42;2.10;;;;;;;;;;5095354;28;20034;-57
2022/03/05 06:10:51;;;;;;;2.92;1.98;;;;;;;;;;5080020;28;20033;-53
2022/03/05 06:13:18;;;;;;;2.92;2.13;;;;;;;;;;5074839;28;20024;-55
2022/03/05 06:15:44;;;;;;;4.50;2.65;;;;;;;;;;5055736;28;20048;-55
2022/03/05 06:18:10;;;;;;;2.20;1.60;;;;;;;;;;5074866;28;20079;-54
2022/03/05 06:20:37;;;;;;;2.95;2.22;;;;;;;;;;5086262;28;20055;-57
2022/03/05 06:23:03;;;;;;;2.65;1.85;;;;;;;;;;5096311;28;20080;-53
2022/03/05 06:25:30;;;;;;;2.65;1.90;;;;;;;;;;5097298;28;20107;-55
2022/03/05 06:27:56;;;;;;;2.90;2.00;;;;;;;;;;5086483;28;20796;-54
2022/03/05 06:30:23;;;;;;;3.15;2.15;;;;;;;;;;5085212;28;20029;-54
2022/03/05 06:32:49;;;;;;;4.03;1.80;;;;;;;;;;5094542;28;20153;-55
2022/03/05 06:35:15;;;;;;;3.00;2.20;;;;;;;;;;5065852;28;20028;-55
2022/03/05 06:37:41;;;;;;;2.55;1.73;;;;;;;;;;5074751;28;20031;-55
2022/03/05 06:40:10;;;;;;;4.25;2.03;;;;;;;;;;5084355;28;20055;-52
2022/03/05 06:42:36;;;;;;;4.07;2.00;;;;;;;;;;5095051;28;20373;-58
2022/03/05 06:45:03;;;;;;;2.97;2.00;;;;;;;;;;5078613;28;20454;-52
2022/03/05 06:47:30;;;;;;;5.50;2.08;;;;;;;;;;5074796;28;20045;-52
2022/03/05 06:49:56;;;;;;;3.17;2.35;;;;;;;;;;5081678;28;20024;-56
2022/03/05 06:52:22;;;;;;;2.60;1.90;;;;;;;;;;5094457;28;20013;-54
2022/03/05 06:54:49;;;;;;;3.08;1.73;;;;;;;;;;5087026;28;20033;-54
2022/03/05 06:57:15;;;;;;;4.35;2.33;;;;;;;;;;5074242;28;20039;-52
2022/03/05 06:59:41;;;;;;;2.75;2.10;;;;;;;;;;5079686;28;20024;-53
2022/03/05 07:02:07;;;;;;;2.70;2.08;;;;;;;;;;5093853;28;20016;-55
2022/03/05 07:04:34;;;;;;;2.45;1.88;;;;;;;;;;5093637;28;20040;-53
2022/03/05 07:07:00;;;;;;;3.17;2.10;;;;;;;;;;5092119;28;20031;-51
2022/03/05 07:09:26;;;;;;;3.35;2.10;;;;;;;;;;5087399;28;20021;-54
2022/03/05 07:11:52;;;;;;;2.55;1.88;;;;;;;;;;5074136;28;20055;-53
2022/03/05 07:14:18;;;;;;;2.80;2.15;;;;;;;;;;5074184;28;20032;-53
2022/03/05 07:16:44;;;;;;;6.30;2.72;;;;;;;;;;5073191;28;20049;-57
2022/03/05 07:19:10;;;;;;;3.10;2.17;;;;;;;;;;5076935;28;20016;-54
2022/03/05 07:21:36;;;;;;;3.45;2.13;;;;;;;;;;5074424;28;20072;-55
2022/03/05 07:24:04;;;;;;;4.18;2.40;;;;;;;;;;5083868;28;20028;-57
2022/03/05 07:26:30;;;;;;;2.65;2.10;;;;;;;;;;5073194;28;20486;-57
2022/03/05 07:28:56;;;;;;;4.70;2.55;;;;;;;;;;5072851;28;20074;-57
2022/03/05 07:31:22;;;;;;;3.60;2.40;;;;;;;;;;5088037;28;20028;-56
2022/03/05 07:33:48;;;;;;;3.00;2.17;;;;;;;;;;5093359;28;20081;-52
2022/03/05 07:36:14;;;;;;;3.47;2.47;;;;;;;;;;5094150;28;20032;-51
2022/03/05 07:38:43;;;;;;;3.42;2.05;;;;;;;;;;5093060;28;20031;-53
2022/03/05 07:41:09;;;;;;;3.78;2.53;;;;;;;;;;5063009;28;20025;-52
2022/03/05 07:43:35;;;;;;;2.90;1.90;;;;;;;;;;5077805;28;20024;-53
2022/03/05 07:46:01;;;;;;;3.03;2.33;;;;;;;;;;5093389;28;20074;-49
2022/03/05 07:48:27;;;;;;;4.70;2.60;;;;;;;;;;5093628;28;20111;-50
2022/03/05 07:50:54;;;;;;;3.28;2.58;;;;;;;;;;5082588;28;20375;-55
2022/03/05 07:53:20;;;;;;;3.45;2.60;;;;;;;;;;5073558;28;20032;-51
2022/03/05 07:55:46;;;;;;;3.30;2.40;;;;;;;;;;5072045;28;20024;-53
2022/03/05 07:58:12;;;;;;;2.85;2.00;;;;;;;;;;5073451;28;20043;-51
2022/03/05 08:00:38;;;;;;;4.18;2.10;;;;;;;;;;5080769;28;20418;-58
2022/03/05 08:03:04;;;;;;;3.03;2.50;;;;;;;;;;5092905;28;20461;-57
2022/03/05 08:05:30;;;;;;;3.90;2.85;;;;;;;;;;5085484;28;20024;-53
2022/03/05 08:07:56;;;;;;;3.15;2.35;;;;;;;;;;5084180;28;20039;-54
2022/03/05 08:10:22;;;;;;;5.25;2.42;;;;;;;;;;5084930;28;20020;-55
2022/03/05 08:12:48;;;;;;;3.85;2.45;;;;;;;;;;5090168;28;20024;-54
2022/03/05 08:15:15;;;;;;;4.70;2.55;;;;;;;;;;5089222;28;20389;-54
2022/03/05 08:17:54;;;;;;;5.22;2.78;;;;;;;;;;5072345;28;20032;-56
2022/03/05 08:20:21;;;;;;;3.67;2.40;;;;;;;;;;5073951;28;20024;-46
2022/03/05 08:22:47;;;;;;;4.82;2.53;;;;;;;;;;5087131;28;20077;-47
2022/03/05 08:25:14;;;;;;;5.05;2.50;;;;;;;;;;5093084;28;20024;-48
2022/03/05 08:27:40;;;;;;;4.18;2.30;;;;;;;;;;5074895;28;20028;-50
2022/03/05 08:30:06;;;;;;;2.90;2.10;;;;;;;;;;5092739;28;20419;-49
2022/03/05 08:32:32;;;;;;;2.88;2.25;;;;;;;;;;5080190;28;20063;-53
2022/03/05 08:34:58;;;;;;;3.50;2.40;;;;;;;;;;5071809;28;20036;-50
2022/03/05 08:37:24;;;;;;;8.38;2.92;;;;;;;;;;5072378;28;20027;-50
2022/03/05 08:39:50;;;;;;;3.65;2.03;;;;;;;;;;5071977;28;20028;-53
2022/03/05 08:42:16;;;;;;;4.63;2.78;;;;;;;;;;5079857;28;20107;-49
2022/03/05 08:44:42;;;;;;;6.47;3.25;;;;;;;;;;5078868;28;20448;-53
2022/03/05 08:47:08;;;;;;;4.82;2.67;;;;;;;;;;5072548;28;20108;-53
2022/03/05 08:49:34;;;;;;;6.28;2.97;;;;;;;;;;5072602;28;20103;-56
2022/03/05 08:52:00;;;;;;;5.07;2.40;;;;;;;;;;5076493;28;20131;-54
2022/03/05 08:54:26;;;;;;;4.43;2.72;;;;;;;;;;5092751;28;20034;-54
2022/03/05 08:56:53;;;;;;;4.65;2.45;;;;;;;;;;5091872;28;20027;-54
2022/03/05 08:59:19;;;;;;;5.28;2.97;;;;;;;;;;5092930;28;20077;-56
2022/03/05 09:01:45;;;;;;;5.28;3.33;;;;;;;;;;5088916;28;20042;-55
2022/03/05 09:04:12;;;;;;;5.93;3.22;;;;;;;;;;5054632;28;20425;-57
2022/03/05 09:06:38;;;;;;;5.38;3.03;;;;;;;;;;5071329;28;20450;-58
2022/03/05 09:09:04;;;;;;;6.82;3.00;;;;;;;;;;5071598;28;20028;-58
2022/03/05 09:11:30;;;;;;;6.75;2.42;;;;;;;;;;5091082;28;20542;-59
2022/03/05 09:13:56;;;;;;;6.07;3.00;;;;;;;;;;5071628;28;20020;-58
2022/03/05 09:16:22;;;;;;;5.22;2.85;;;;;;;;;;5071889;28;20052;-60
2022/03/05 09:18:48;;;;;;;5.93;3.05;;;;;;;;;;5071643;28;20021;-58
2022/03/05 09:21:14;;;;;;;6.85;5.07;;;;;;;;;;5072494;28;20035;-60
2022/03/05 09:23:40;;;;;;;8.38;4.20;;;;;;;;;;5089737;28;20024;-58
2022/03/05 09:26:06;;;;;;;7.88;4.05;;;;;;;;;;5091664;28;20107;-59
2022/03/05 09:28:32;;;;;;;6.82;4.03;;;;;;;;;;5092304;28;20346;-57
2022/03/05 09:30:58;;;;;;;6.05;4.43;;;;;;;;;;5091601;28;20024;-59
2022/03/05 09:33:25;;;;;;;7.57;4.00;;;;;;;;;;5076278;28;20389;-61
2022/03/05 09:35:51;;;;;;;6.68;3.58;;;;;;;;;;5071112;28;20028;-57
2022/03/05 09:38:17;;;;;;;6.57;3.25;;;;;;;;;;5076254;28;20029;-59
2022/03/05 09:40:43;;;;;;;6.88;3.38;;;;;;;;;;5071433;28;20020;-59
2022/03/05 09:43:09;;;;;;;8.27;3.50;;;;;;;;;;5084260;28;20103;-49
2022/03/05 09:45:35;;;;;;;9.20;4.22;;;;;;;;;;5071537;28;20124;-54
2022/03/05 09:48:01;;;;;;;4.60;3.03;;;;;;;;;;5071463;28;20037;-54
2022/03/05 09:50:29;;;;;;;6.38;3.63;;;;;;;;;;5080376;28;20036;-55
2022/03/05 09:52:56;;;;;;;7.57;3.42;;;;;;;;;;5080744;28;20024;-60
2022/03/05 09:55:22;;;;;;;5.00;2.67;;;;;;;;;;5071847;28;20028;-48
2022/03/05 09:57:48;;;;;;;7.72;3.20;;;;;;;;;;5071106;28;20029;-50
2022/03/05 10:00:20;;;;;;;6.15;2.78;;;;;;;;;;5080374;28;20031;-55
2022/03/05 10:02:46;;;;;;;5.90;3.15;;;;;;;;;;5074589;28;20052;-56
2022/03/05 10:05:26;;;;;;;8.25;3.28;;;;;;;;;;5076204;28;20024;-53
2022/03/05 10:07:59;;;;;;;9.35;3.50;;;;;;;;;;5091836;28;20031;-54
2022/03/05 10:10:25;;;;;;;8.63;3.15;;;;;;;;;;5081972;28;20032;-55
2022/03/05 10:12:51;;;;;;;7.20;3.20;;;;;;;;;;5071577;28;20021;-55
2022/03/05 10:15:17;;;;;;;8.38;3.55;;;;;;;;;;5071290;28;20036;-59
2022/03/05 10:18:00;;;;;;;8.60;3.00;;;;;;;;;;5073212;28;20056;-58
2022/03/05 10:20:27;;;;;;;5.75;2.80;;;;;;;;;;5074896;28;20473;-58
2022/03/05 10:22:58;;;;;;;5.53;2.80;;;;;;;;;;5086449;28;20059;-61
2022/03/05 10:25:31;;;;;;;7.00;3.03;;;;;;;;;;5094914;28;20035;-58
2022/03/05 10:28:00;;;;;;;4.25;3.00;;;;;;;;;;5094711;28;20096;-59
2022/03/05 10:30:30;;;;;;;4.78;2.55;;;;;;;;;;5094565;28;20125;-61
2022/03/05 10:32:56;;;;;;;5.47;3.15;;;;;;;;;;5094046;28;20028;-64
2022/03/05 10:35:22;;;;;;;5.00;2.55;;;;;;;;;;5095218;28;20028;-63
2022/03/05 10:37:51;;;;;;;4.30;2.65;;;;;;;;;;5094530;28;20043;-48
2022/03/05 10:40:25;;;;;;;7.72;2.78;;;;;;;;;;5094241;28;20026;-61
2022/03/05 10:42:51;;;;;;;7.28;2.72;;;;;;;;;;5082860;28;20020;-57
2022/03/05 10:45:18;;;;;;;5.65;2.90;;;;;;;;;;5091995;28;20109;-61
2022/03/05 10:47:46;;;;;;;4.43;2.72;;;;;;;;;;5094964;28;20031;-58
2022/03/05 10:50:25;;;;;;;6.22;3.00;;;;;;;;;;5082430;28;20099;-58
2022/03/05 10:52:52;;;;;;;8.07;3.13;;;;;;;;;;5067002;28;20050;-72
2022/03/05 10:55:20;;;;;;;5.45;3.13;;;;;;;;;;5094624;28;20032;-67
2022/03/05 10:57:57;;;;;;;5.93;3.05;;;;;;;;;;5094288;28;20031;-58
2022/03/05 11:00:23;;;;;;;4.75;2.67;;;;;;;;;;5094219;28;20381;-61
2022/03/05 11:02:50;;;;;;;6.95;2.85;;;;;;;;;;5085347;28;20073;-61
2022/03/05 11:05:20;;;;;;;7.97;3.40;;;;;;;;;;5094299;28;20031;-60
2022/03/05 11:07:48;;;;;;;9.05;3.25;;;;;;;;;;5094134;28;20063;-61
2022/03/05 11:10:15;;;;;;;5.05;2.40;;;;;;;;;;5094041;28;20109;-60
2022/03/05 11:12:41;;;;;;;5.28;2.67;;;;;;;;;;5084313;28;20093;-59
2022/03/05 11:15:08;;;;;;;3.90;2.45;;;;;;;;;;5072912;28;20556;-59
2022/03/05 11:17:34;;;;;;;7.93;2.65;;;;;;;;;;5074234;28;20476;-60
2022/03/05 11:20:01;;;;;;;9.75;2.83;;;;;;;;;;5083542;28;20029;-60
2022/03/05 11:22:28;;;;;;;3.72;2.35;;;;;;;;;;5081081;28;20036;-60
2022/03/05 11:24:54;;;;;;;7.07;3.25;;;;;;;;;;5093840;28;20116;-60
2022/03/05 11:27:20;;;;;;;4.22;2.63;;;;;;;;;;5087438;28;20060;-59
2022/03/05 11:29:56;;;;;;;3.60;2.50;;;;;;;;;;5072836;28;20355;-59
2022/03/05 11:32:23;;;;;;;3.65;2.33;;;;;;;;;;5086842;28;20028;-60
2022/03/05 11:34:50;;;;;;;5.45;2.35;;;;;;;;;;5093614;28;20077;-62
2022/03/05 11:37:26;;;;;;;4.60;2.10;;;;;;;;;;5093621;28;20020;-60
2022/03/05 11:39:53;;;;;;;3.47;2.33;;;;;;;;;;5093360;28;20028;-60
2022/03/05 11:42:29;;;;;;;4.07;2.20;;;;;;;;;;5087559;28;20078;-60
2022/03/05 11:44:55;;;;;;;4.35;2.75;;;;;;;;;;5087407;28;20036;-60
2022/03/05 11:47:31;;;;;;;4.28;2.30;;;;;;;;;;5093368;28;20409;-60
2022/03/05 11:50:00;;;;;;;4.63;2.85;;;;;;;;;;5092994;28;20019;-60
2022/03/05 11:52:38;;;;;;;3.53;2.20;;;;;;;;;;5086561;28;20100;-60
2022/03/05 11:55:20;;;;;;;3.60;2.42;;;;;;;;;;5072964;28;20029;-60
2022/03/05 11:57:53;;;;;;;3.20;2.33;;;;;;;;;;5083783;28;20024;-59
2022/03/05 12:00:19;;;;;;;5.35;2.47;;;;;;;;;;5093460;28;20062;-60
2022/03/05 12:02:46;;;;;;;4.45;2.58;;;;;;;;;;5092457;28;20058;-60
2022/03/05 12:05:31;;;;;;;5.55;2.50;;;;;;;;;;5092696;28;20028;-60
2022/03/05 12:07:57;;;;;;;3.40;2.22;;;;;;;;;;5092801;28;20032;-60
2022/03/05 12:10:23;;;;;;;3.55;2.10;;;;;;;;;;5093475;28;20028;-60
2022/03/05 12:13:19;;;;;;;3.33;2.67;;;;;;;;;;5083340;28;20027;-61
2022/03/05 12:15:45;;;;;;;5.25;2.60;;;;;;;;;;5055532;28;20044;-59
2022/03/05 12:18:15;;;;;;;4.15;2.20;;;;;;;;;;5072361;28;20056;-59
2022/03/05 12:20:44;;;;;;;3.00;1.90;;;;;;;;;;5072885;28;20033;-60
2022/03/05 12:23:11;;;;;;;2.95;2.08;;;;;;;;;;5086076;28;20152;-60
2022/03/05 12:25:38;;;;;;;4.30;2.20;;;;;;;;;;5093012;28;20064;-60
2022/03/05 12:28:05;;;;;;;3.22;2.35;;;;;;;;;;5092251;28;20093;-59
2022/03/05 12:30:37;;;;;;;3.13;2.20;;;;;;;;;;5083550;28;20028;-60
2022/03/05 12:33:04;;;;;;;3.38;1.95;;;;;;;;;;5076291;28;20040;-60
2022/03/05 12:35:31;;;;;;;4.45;2.25;;;;;;;;;;5072745;28;20434;-59
2022/03/05 12:37:57;;;;;;;3.67;1.85;;;;;;;;;;5071779;28;20493;-60
2022/03/05 12:40:24;;;;;;;3.70;2.28;;;;;;;;;;5072464;28;20351;-59
2022/03/05 12:42:51;;;;;;;2.78;1.80;;;;;;;;;;5081936;28;20385;-60
2022/03/05 12:45:24;;;;;;;3.40;1.80;;;;;;;;;;5074494;28;20083;-59
2022/03/05 12:47:50;;;;;;;3.35;2.30;;;;;;;;;;5090560;28;20444;-61
2022/03/05 12:50:19;;;;;;;2.03;1.63;;;;;;;;;;5092592;28;20032;-60
2022/03/05 12:53:06;;;;;;;2.90;2.15;;;;;;;;;;5092778;28;20023;-59
2022/03/05 12:55:39;;;;;;;2.30;1.77;;;;;;;;;;5092185;28;20469;-60
2022/03/05 12:58:06;;;;;;;2.75;2.00;;;;;;;;;;5090614;28;20043;-60
2022/03/05 13:00:33;;;;;;;3.70;2.63;;;;;;;;;;5092241;28;20430;-60
2022/03/05 13:02:59;;;;;;;4.97;2.42;;;;;;;;;;5086471;28;20461;-58
2022/03/05 13:05:25;;;;;;;4.18;2.22;;;;;;;;;;5092317;28;20116;-56
2022/03/05 13:07:51;;;;;;;7.18;1.83;;;;;;;;;;5073395;28;20028;-53
2022/03/05 13:10:17;;;;;;;3.35;2.10;;;;;;;;;;5071894;28;20028;-58
2022/03/05 13:12:43;;;;;;;3.85;2.22;;;;;;;;;;5072167;28;20055;-55
2022/03/05 13:15:10;;;;;;;7.53;2.70;;;;;;;;;;5076657;28;20482;-54
2022/03/05 13:17:36;;;;;;;4.63;2.53;;;;;;;;;;5092324;28;20120;-54
2022/03/05 13:20:03;;;;;;;5.13;3.05;;;;;;;;;;5091290;28;20028;-57
2022/03/05 13:22:29;;;;;;;9.45;1.85;;;;;;;;;;5072220;28;20067;-54
2022/03/05 13:24:55;;;;;;;6.07;2.60;;;;;;;;;;5075831;28;20070;-55
2022/03/05 13:27:26;;;;;;;6.00;2.78;;;;;;;;;;5092260;28;20032;-54
2022/03/05 13:29:55;;;;;;;8.20;2.65;;;;;;;;;;5091042;28;20457;-55
2022/03/05 13:32:24;;;;;;;7.45;2.47;;;;;;;;;;5091539;28;20028;-55
2022/03/05 13:35:06;;;;;;;7.63;2.55;;;;;;;;;;5091674;28;20093;-58
2022/03/05 13:37:36;;;;;;;5.75;3.22;;;;;;;;;;5092451;28;20032;-58
2022/03/05 13:40:02;;;;;;;4.32;2.42;;;;;;;;;;5091856;28;20103;-47
2022/03/05 13:42:33;;;;;;;6.43;1.88;;;;;;;;;;5072732;28;20066;-57
2022/03/05 13:45:00;;;;;;;9.18;2.33;;;;;;;;;;5086000;28;20107;-62
2022/03/05 13:47:26;;;;;;;4.38;2.28;;;;;;;;;;5092197;28;20137;-62
2022/03/05 13:49:52;;;;;;;3.05;1.77;;;;;;;;;;5091125;28;20016;-61
2022/03/05 13:52:20;;;;;;;3.85;2.45;;;;;;;;;;5092978;28;20032;-61
2022/03/05 13:54:50;;;;;;;3.85;2.13;;;;;;;;;;5094142;28;20353;-62
2022/03/05 13:57:27;;;;;;;6.35;2.42;;;;;;;;;;5075451;28;20035;-54
2022/03/05 13:59:53;;;;;;;3.58;1.70;;;;;;;;;;5077087;28;20085;-69
2022/03/05 14:02:19;;;;;;;5.28;2.33;;;;;;;;;;5087528;28;20028;-72
2022/03/05 14:04:58;;;;;;;3.92;2.13;;;;;;;;;;5094486;28;20403;-62
2022/03/05 14:07:24;;;;;;;2.97;1.92;;;;;;;;;;5075401;28;20025;-60
2022/03/05 14:09:50;;;;;;;3.17;1.98;;;;;;;;;;5089879;28;20032;-50
2022/03/05 14:12:20;;;;;;;3.28;2.25;;;;;;;;;;5095703;28;20020;-58
2022/03/05 14:14:50;;;;;;;5.13;2.42;;;;;;;;;;5094317;28;20024;-47
2022/03/05 14:17:23;;;;;;;3.05;1.95;;;;;;;;;;5074945;28;20168;-50
2022/03/05 14:19:50;;;;;;;3.92;1.75;;;;;;;;;;5075119;28;20028;-48
2022/03/05 14:22:20;;;;;;;10.38;2.95;;;;;;;;;;5059223;28;20020;-47
2022/03/05 14:24:46;;;;;;;3.35;2.05;;;;;;;;;;5093851;28;20024;-46
2022/03/05 14:27:16;;;;;;;4.28;2.22;;;;;;;;;;5056498;28;20504;-56
2022/03/05 14:29:43;;;;;;;4.45;2.20;;;;;;;;;;5077279;28;20021;-53
2022/03/05 14:32:09;;;;;;;4.30;1.90;;;;;;;;;;5080782;28;20036;-53
2022/03/05 14:34:36;;;;;;;3.28;1.85;;;;;;;;;;5082602;28;20048;-53
2022/03/05 14:37:02;;;;;;;2.30;1.80;;;;;;;;;;5077146;28;20440;-55
2022/03/05 14:39:28;;;;;;;3.30;1.77;;;;;;;;;;5075233;28;20032;-53
2022/03/05 14:41:54;;;;;;;5.47;2.22;;;;;;;;;;5090715;28;20056;-52
2022/03/05 14:44:20;;;;;;;5.22;1.75;;;;;;;;;;5084463;28;20056;-55